createdAt,value
2017-12-11T00:00:33.619Z,3.02
2017-12-11T00:01:33.621Z,2.96
2017-12-11T00:02:34.136Z,3.01
2017-12-11T00:03:33.830Z,2.96
2017-12-11T00:04:33.541Z,3.03
2017-12-11T00:05:33.792Z,2.91
2017-12-11T00:06:33.791Z,2.91
2017-12-11T00:07:33.764Z,3.06
2017-12-11T00:08:33.502Z,2.93
2017-12-11T00:09:33.459Z,3.02
2017-12-11T00:10:33.709Z,2.95
2017-12-11T00:11:33.712Z,2.98
2017-12-11T00:12:33.685Z,3.08
2017-12-11T00:13:33.661Z,2.95
2017-12-11T00:14:33.650Z,2.99
2017-12-11T00:15:33.645Z,2.95
2017-12-11T00:16:33.616Z,2.95
2017-12-11T00:17:33.607Z,2.95
2017-12-11T00:18:33.582Z,3.09
2017-12-11T00:19:33.291Z,3.02
2017-12-11T00:20:33.845Z,3.01
2017-12-11T00:21:33.533Z,2.95
2017-12-11T00:22:33.516Z,3.03
2017-12-11T00:23:33.534Z,3.03
2017-12-11T00:24:33.487Z,2.96
2017-12-11T00:25:33.193Z,2.96
2017-12-11T00:26:33.721Z,2.98
2017-12-11T00:27:33.433Z,2.95
2017-12-11T00:28:33.414Z,3.09
2017-12-11T00:29:33.154Z,2.96
2017-12-11T00:30:33.394Z,3.08
2017-12-11T00:31:33.366Z,3.06
2017-12-11T00:32:33.081Z,3.08
2017-12-11T00:33:33.611Z,3.14
2017-12-11T00:34:33.046Z,3.17
2017-12-11T00:35:33.049Z,3.17
2017-12-11T00:36:33.012Z,3.2
2017-12-11T00:37:33.549Z,3.2
2017-12-11T00:38:33.521Z,3.2
2017-12-11T00:39:32.961Z,3.2
2017-12-11T00:40:33.242Z,3.2
2017-12-11T00:41:33.202Z,3.26
2017-12-11T00:42:33.182Z,3.2
2017-12-11T00:43:33.174Z,3.19
2017-12-11T00:44:33.155Z,3.24
2017-12-11T00:45:32.872Z,3.21
2017-12-11T00:46:32.900Z,3.2
2017-12-11T00:47:32.835Z,3.34
2017-12-11T00:48:33.095Z,3.19
2017-12-11T00:49:32.821Z,3.23
2017-12-11T00:50:33.060Z,3.23
2017-12-11T00:51:33.037Z,3.19
2017-12-11T00:52:32.755Z,3.21
2017-12-11T00:53:33.080Z,3.24
2017-12-11T00:54:32.994Z,3.21
2017-12-11T00:55:32.983Z,3.17
2017-12-11T00:56:32.690Z,3.17
2017-12-11T00:57:32.697Z,3.34
2017-12-11T00:58:32.926Z,3.34
2017-12-11T00:59:32.907Z,3.32
2017-12-11T01:00:33.170Z,3.32
2017-12-11T01:01:32.896Z,3.29
2017-12-11T01:02:32.597Z,3.3
2017-12-11T01:03:32.594Z,3.23
2017-12-11T01:04:32.847Z,3.27
2017-12-11T01:05:32.543Z,3.2
2017-12-11T01:06:32.794Z,3.27
2017-12-11T01:07:32.526Z,3.32
2017-12-11T01:08:32.493Z,3.34
2017-12-11T01:09:32.476Z,3.3
2017-12-11T01:10:33.007Z,3.29
2017-12-11T01:11:32.718Z,3.3
2017-12-11T01:12:32.454Z,3.42
2017-12-11T01:13:32.421Z,3.34
2017-12-11T01:14:32.940Z,3.35
2017-12-11T01:15:32.931Z,3.42
2017-12-11T01:16:32.635Z,3.45
2017-12-11T01:17:32.620Z,3.43
2017-12-11T01:18:32.606Z,3.42
2017-12-11T01:19:32.328Z,3.46
2017-12-11T01:20:32.568Z,3.49
2017-12-11T01:21:32.284Z,3.49
2017-12-11T01:22:32.540Z,3.51
2017-12-11T01:23:32.523Z,3.51
2017-12-11T01:24:32.517Z,3.57
2017-12-11T01:25:32.221Z,3.53
2017-12-11T01:26:32.501Z,3.45
2017-12-11T01:27:32.460Z,3.46
2017-12-11T01:28:32.446Z,3.43
2017-12-11T01:29:32.695Z,3.54
2017-12-11T01:30:32.412Z,3.56
2017-12-11T01:31:32.674Z,3.49
2017-12-11T01:32:32.404Z,3.46
2017-12-11T01:33:32.090Z,3.56
2017-12-11T01:34:32.081Z,3.45
2017-12-11T01:35:32.602Z,3.49
2017-12-11T01:36:32.612Z,3.46
2017-12-11T01:37:32.029Z,3.49
2017-12-11T01:38:32.335Z,3.54
2017-12-11T01:39:31.995Z,3.46
2017-12-11T01:40:32.531Z,3.48
2017-12-11T01:41:32.244Z,3.48
2017-12-11T01:42:32.254Z,3.49
2017-12-11T01:43:32.739Z,3.48
2017-12-11T01:44:32.292Z,3.48
2017-12-11T01:45:32.530Z,3.53
2017-12-11T01:46:32.468Z,3.48
2017-12-11T01:47:32.140Z,3.51
2017-12-11T01:48:31.852Z,3.56
2017-12-11T01:49:31.860Z,3.61
2017-12-11T01:50:32.086Z,3.61
2017-12-11T01:51:32.078Z,3.56
2017-12-11T01:52:32.069Z,3.53
2017-12-11T01:53:31.785Z,3.56
2017-12-11T01:54:32.027Z,3.54
2017-12-11T01:55:32.011Z,3.61
2017-12-11T01:56:32.006Z,3.56
2017-12-11T01:57:32.010Z,3.48
2017-12-11T01:58:31.715Z,3.58
2017-12-11T01:59:31.956Z,3.54
2017-12-11T02:00:31.929Z,3.57
2017-12-11T02:01:31.935Z,3.57
2017-12-11T02:02:31.897Z,3.58
2017-12-11T02:03:32.163Z,3.63
2017-12-11T02:04:31.868Z,3.56
2017-12-11T02:05:32.139Z,3.63
2017-12-11T02:06:31.856Z,3.61
2017-12-11T02:07:31.547Z,3.64
2017-12-11T02:08:31.556Z,3.56
2017-12-11T02:09:31.532Z,3.53
2017-12-11T02:10:31.775Z,3.67
2017-12-11T02:11:31.755Z,3.63
2017-12-11T02:12:31.485Z,3.64
2017-12-11T02:13:31.730Z,3.57
2017-12-11T02:14:31.435Z,3.64
2017-12-11T02:15:31.420Z,3.63
2017-12-11T02:16:31.679Z,3.6
2017-12-11T02:17:31.388Z,3.57
2017-12-11T02:18:31.381Z,3.58
2017-12-11T02:19:31.628Z,3.71
2017-12-11T02:20:31.340Z,3.67
2017-12-11T02:21:31.598Z,3.66
2017-12-11T02:22:31.310Z,3.72
2017-12-11T02:23:31.565Z,3.67
2017-12-11T02:24:31.548Z,3.69
2017-12-11T02:25:31.807Z,3.63
2017-12-11T02:26:31.528Z,3.69
2017-12-11T02:27:31.503Z,3.74
2017-12-11T02:28:31.775Z,3.64
2017-12-11T02:29:31.466Z,3.69
2017-12-11T02:30:31.185Z,3.74
2017-12-11T02:31:31.537Z,3.69
2017-12-11T02:32:31.420Z,3.71
2017-12-11T02:33:31.409Z,3.74
2017-12-11T02:34:31.139Z,3.61
2017-12-11T02:35:31.374Z,3.63
2017-12-11T02:36:31.379Z,3.56
2017-12-11T02:37:31.076Z,3.56
2017-12-11T02:38:31.058Z,3.64
2017-12-11T02:39:31.042Z,3.63
2017-12-11T02:40:31.609Z,3.72
2017-12-11T02:41:31.289Z,3.63
2017-12-11T02:42:31.263Z,3.54
2017-12-11T02:43:31.248Z,3.64
2017-12-11T02:44:31.230Z,3.69
2017-12-11T02:45:31.584Z,3.61
2017-12-11T02:46:31.487Z,3.66
2017-12-11T02:47:31.184Z,3.72
2017-12-11T02:48:31.444Z,3.67
2017-12-11T02:49:31.426Z,3.69
2017-12-11T02:50:30.896Z,3.69
2017-12-11T02:51:30.850Z,3.72
2017-12-11T02:52:30.840Z,3.69
2017-12-11T02:53:31.110Z,3.64
2017-12-11T02:54:30.808Z,3.79
2017-12-11T02:55:30.787Z,3.79
2017-12-11T02:56:31.044Z,3.79
2017-12-11T02:57:30.757Z,3.72
2017-12-11T02:58:30.743Z,3.78
2017-12-11T02:59:30.996Z,3.67
2017-12-11T03:00:30.708Z,3.75
2017-12-11T03:01:30.965Z,3.72
2017-12-11T03:02:30.676Z,3.79
2017-12-11T03:03:31.205Z,3.89
2017-12-11T03:04:30.660Z,3.89
2017-12-11T03:05:30.902Z,3.86
2017-12-11T03:06:30.885Z,3.79
2017-12-11T03:07:30.598Z,3.81
2017-12-11T03:08:30.603Z,3.81
2017-12-11T03:09:30.567Z,3.81
2017-12-11T03:10:30.849Z,3.81
2017-12-11T03:11:30.531Z,3.78
2017-12-11T03:12:30.518Z,3.82
2017-12-11T03:13:30.794Z,3.85
2017-12-11T03:14:30.486Z,3.76
2017-12-11T03:15:30.762Z,3.75
2017-12-11T03:16:30.733Z,3.72
2017-12-11T03:17:30.445Z,3.71
2017-12-11T03:18:30.701Z,3.58
2017-12-11T03:19:30.961Z,3.56
2017-12-11T03:20:30.760Z,3.56
2017-12-11T03:21:30.653Z,3.46
2017-12-11T03:22:30.362Z,3.39
2017-12-11T03:23:30.888Z,3.4
2017-12-11T03:24:30.328Z,3.32
2017-12-11T03:25:30.321Z,3.19
2017-12-11T03:26:30.862Z,3.21
2017-12-11T03:27:30.853Z,3.23
2017-12-11T03:28:30.537Z,3.2
2017-12-11T03:29:30.524Z,3.34
2017-12-11T03:30:30.249Z,3.26
2017-12-11T03:31:30.536Z,3.34
2017-12-11T03:32:30.758Z,3.39
2017-12-11T03:33:30.743Z,3.48
2017-12-11T03:34:30.714Z,3.43
2017-12-11T03:35:30.156Z,3.48
2017-12-11T03:36:30.155Z,3.45
2017-12-11T03:37:30.397Z,3.4
2017-12-11T03:38:30.120Z,3.4
2017-12-11T03:39:30.366Z,3.35
2017-12-11T03:40:30.077Z,3.4
2017-12-11T03:41:30.331Z,3.32
2017-12-11T03:42:30.053Z,3.43
2017-12-11T03:43:30.025Z,3.46
2017-12-11T03:44:30.014Z,3.42
2017-12-11T03:45:30.268Z,3.42
2017-12-11T03:46:30.259Z,3.39
2017-12-11T03:47:30.508Z,3.42
2017-12-11T03:48:30.219Z,3.45
2017-12-11T03:49:30.225Z,3.46
2017-12-11T03:50:30.192Z,3.4
2017-12-11T03:51:29.899Z,3.45
2017-12-11T03:52:30.177Z,3.34
2017-12-11T03:53:30.139Z,3.26
2017-12-11T03:54:29.853Z,3.34
2017-12-11T03:55:30.130Z,3.37
2017-12-11T03:56:29.823Z,3.21
2017-12-11T03:57:30.348Z,3.23
2017-12-11T03:58:30.067Z,3.21
2017-12-11T03:59:29.773Z,3.09
2017-12-11T04:00:29.755Z,3.21
2017-12-11T04:01:29.747Z,3.21
2017-12-11T04:02:29.731Z,3.19
2017-12-11T04:03:29.981Z,3.23
2017-12-11T04:04:29.690Z,3.32
2017-12-11T04:05:30.012Z,3.3
2017-12-11T04:06:29.674Z,3.32
2017-12-11T04:07:30.191Z,3.29
2017-12-11T04:08:29.897Z,3.24
2017-12-11T04:09:29.888Z,3.24
2017-12-11T04:10:29.884Z,3.26
2017-12-11T04:11:29.583Z,3.2
2017-12-11T04:12:29.561Z,3.21
2017-12-11T04:13:29.549Z,3.21
2017-12-11T04:14:30.075Z,3.23
2017-12-11T04:15:30.070Z,3.26
2017-12-11T04:16:29.771Z,3.23
2017-12-11T04:17:29.483Z,3.26
2017-12-11T04:18:29.480Z,3.2
2017-12-11T04:19:29.722Z,3.21
2017-12-11T04:20:29.704Z,3.24
2017-12-11T04:21:29.693Z,3.21
2017-12-11T04:22:29.945Z,3.21
2017-12-11T04:23:30.008Z,3.19
2017-12-11T04:24:29.647Z,3.29
2017-12-11T04:25:29.356Z,3.2
2017-12-11T04:26:29.341Z,3.21
2017-12-11T04:27:29.336Z,3.24
2017-12-11T04:28:29.584Z,3.24
2017-12-11T04:29:29.580Z,3.26
2017-12-11T04:30:29.557Z,3.26
2017-12-11T04:31:29.531Z,3.32
2017-12-11T04:32:29.266Z,3.43
2017-12-11T04:33:29.504Z,3.48
2017-12-11T04:34:29.213Z,3.43
2017-12-11T04:35:29.214Z,3.46
2017-12-11T04:36:29.449Z,3.46
2017-12-11T04:37:29.201Z,3.51
2017-12-11T04:38:29.419Z,3.54
2017-12-11T04:39:29.404Z,3.53
2017-12-11T04:40:29.384Z,3.51
2017-12-11T04:41:29.379Z,3.48
2017-12-11T04:42:29.083Z,3.58
2017-12-11T04:43:29.078Z,3.49
2017-12-11T04:44:29.083Z,3.49
2017-12-11T04:45:29.060Z,3.54
2017-12-11T04:46:29.301Z,3.63
2017-12-11T04:47:29.006Z,3.56
2017-12-11T04:48:29.262Z,3.54
2017-12-11T04:49:28.973Z,3.57
2017-12-11T04:50:28.962Z,3.56
2017-12-11T04:51:29.223Z,3.57
2017-12-11T04:52:29.198Z,3.54
2017-12-11T04:53:28.911Z,3.49
2017-12-11T04:54:28.896Z,3.6
2017-12-11T04:55:28.878Z,3.6
2017-12-11T04:56:28.884Z,3.64
2017-12-11T04:57:29.117Z,3.69
2017-12-11T04:58:28.858Z,3.71
2017-12-11T04:59:28.819Z,3.63
2017-12-11T05:00:29.073Z,3.6
2017-12-11T05:01:29.056Z,3.6
2017-12-11T05:02:29.053Z,3.51
2017-12-11T05:03:28.749Z,3.49
2017-12-11T05:04:28.735Z,3.54
2017-12-11T05:05:29.010Z,3.63
2017-12-11T05:06:28.987Z,3.6
2017-12-11T05:07:28.970Z,3.63
2017-12-11T05:08:28.948Z,3.53
2017-12-11T05:09:28.928Z,3.51
2017-12-11T05:10:29.201Z,3.63
2017-12-11T05:11:28.896Z,3.53
2017-12-11T05:12:29.149Z,3.64
2017-12-11T05:13:28.645Z,3.61
2017-12-11T05:14:29.134Z,3.64
2017-12-11T05:15:29.103Z,3.63
2017-12-11T05:16:28.546Z,3.57
2017-12-11T05:17:28.530Z,3.61
2017-12-11T05:18:29.073Z,3.58
2017-12-11T05:19:29.051Z,3.58
2017-12-11T05:20:28.756Z,3.64
2017-12-11T05:21:28.742Z,3.51
2017-12-11T05:22:28.465Z,3.51
2017-12-11T05:23:28.709Z,3.61
2017-12-11T05:24:28.706Z,3.51
2017-12-11T05:25:28.689Z,3.57
2017-12-11T05:26:28.415Z,3.54
2017-12-11T05:27:28.658Z,3.48
2017-12-11T05:28:28.643Z,3.51
2017-12-11T05:29:28.621Z,3.54
2017-12-11T05:30:28.604Z,3.57
2017-12-11T05:31:28.856Z,3.49
2017-12-11T05:32:28.586Z,3.49
2017-12-11T05:33:28.281Z,3.49
2017-12-11T05:34:28.536Z,3.53
2017-12-11T05:35:28.247Z,3.49
2017-12-11T05:36:28.518Z,3.49
2017-12-11T05:37:28.218Z,3.48
2017-12-11T05:38:28.475Z,3.48
2017-12-11T05:39:28.186Z,3.46
2017-12-11T05:40:28.171Z,3.39
2017-12-11T05:41:28.172Z,3.43
2017-12-11T05:42:28.136Z,3.43
2017-12-11T05:43:28.411Z,3.43
2017-12-11T05:44:28.378Z,3.39
2017-12-11T05:45:28.107Z,3.45
2017-12-11T05:46:28.351Z,3.46
2017-12-11T05:47:28.607Z,3.4
2017-12-11T05:48:28.047Z,3.42
2017-12-11T05:49:28.028Z,3.46
2017-12-11T05:50:28.283Z,3.46
2017-12-11T05:51:28.273Z,3.4
2017-12-11T05:52:28.255Z,3.35
2017-12-11T05:53:28.239Z,3.43
2017-12-11T05:54:27.952Z,3.32
2017-12-11T05:55:27.949Z,3.32
2017-12-11T05:56:27.921Z,3.29
2017-12-11T05:57:28.179Z,3.2
2017-12-11T05:58:28.188Z,3.29
2017-12-11T05:59:27.873Z,3.29
2017-12-11T06:00:28.128Z,3.21
2017-12-11T06:01:27.850Z,3.23
2017-12-11T06:02:27.843Z,3.26
2017-12-11T06:03:28.101Z,3.23
2017-12-11T06:04:28.065Z,3.19
2017-12-11T06:05:27.777Z,3.19
2017-12-11T06:06:27.776Z,3.27
2017-12-11T06:07:27.744Z,3.2
2017-12-11T06:08:28.001Z,3.27
2017-12-11T06:09:27.985Z,3.21
2017-12-11T06:10:27.723Z,3.2
2017-12-11T06:11:28.234Z,3.2
2017-12-11T06:12:27.671Z,3.19
2017-12-11T06:13:27.653Z,3.26
2017-12-11T06:14:27.963Z,3.19
2017-12-11T06:15:27.624Z,3.19
2017-12-11T06:16:27.880Z,3.27
2017-12-11T06:17:27.595Z,3.2
2017-12-11T06:18:27.844Z,3.23
2017-12-11T06:19:28.109Z,3.2
2017-12-11T06:20:28.087Z,3.17
2017-12-11T06:21:27.857Z,3.24
2017-12-11T06:22:28.094Z,3.13
2017-12-11T06:23:27.500Z,3.29
2017-12-11T06:24:27.480Z,3.19
2017-12-11T06:25:27.744Z,3.2
2017-12-11T06:26:27.995Z,3.17
2017-12-11T06:27:27.433Z,3.2
2017-12-11T06:28:27.696Z,3.19
2017-12-11T06:29:27.401Z,3.19
2017-12-11T06:30:27.662Z,3.13
2017-12-11T06:31:27.371Z,3.16
2017-12-11T06:32:27.352Z,3.14
2017-12-11T06:33:27.610Z,3.14
2017-12-11T06:34:27.325Z,3.14
2017-12-11T06:35:27.579Z,3.13
2017-12-11T06:36:27.563Z,3.16
2017-12-11T06:37:27.281Z,3.17
2017-12-11T06:38:27.530Z,3.14
2017-12-11T06:39:27.247Z,3.16
2017-12-11T06:40:27.495Z,3.14
2017-12-11T06:41:27.484Z,3.14
2017-12-11T06:42:27.197Z,3.23
2017-12-11T06:43:27.463Z,3.09
2017-12-11T06:44:27.432Z,3.14
2017-12-11T06:45:27.414Z,3.19
2017-12-11T06:46:27.134Z,3.06
2017-12-11T06:47:27.140Z,3.03
2017-12-11T06:48:27.638Z,3.03
2017-12-11T06:49:27.112Z,2.98
2017-12-11T06:50:27.069Z,2.98
2017-12-11T06:51:27.059Z,2.95
2017-12-11T06:52:27.037Z,3.01
2017-12-11T06:53:27.298Z,3.01
2017-12-11T06:54:27.006Z,2.93
2017-12-11T06:55:27.259Z,2.9
2017-12-11T06:56:27.259Z,2.95
2017-12-11T06:57:26.952Z,2.9
2017-12-11T06:58:27.479Z,2.96
2017-12-11T06:59:27.194Z,2.91
2017-12-11T07:00:27.452Z,2.88
2017-12-11T07:01:26.893Z,2.87
2017-12-11T07:02:26.876Z,2.84
2017-12-11T07:03:26.859Z,2.83
2017-12-11T07:04:26.843Z,2.84
2017-12-11T07:05:26.825Z,2.76
2017-12-11T07:06:26.811Z,2.8
2017-12-11T07:07:26.818Z,2.7
2017-12-11T07:08:26.778Z,2.73
2017-12-11T07:09:27.047Z,2.76
2017-12-11T07:10:26.750Z,2.77
2017-12-11T07:11:26.732Z,2.76
2017-12-11T07:12:27.260Z,2.81
2017-12-11T07:13:26.698Z,2.8
2017-12-11T07:14:26.702Z,2.81
2017-12-11T07:15:26.937Z,2.78
2017-12-11T07:16:26.650Z,2.73
2017-12-11T07:17:26.905Z,2.77
2017-12-11T07:18:26.636Z,2.77
2017-12-11T07:19:26.605Z,2.77
2017-12-11T07:20:26.585Z,2.77
2017-12-11T07:21:26.862Z,2.83
2017-12-11T07:22:26.824Z,2.81
2017-12-11T07:23:26.540Z,2.81
2017-12-11T07:24:27.089Z,2.81
2017-12-11T07:25:26.503Z,2.81
2017-12-11T07:26:26.486Z,2.95
2017-12-11T07:27:26.471Z,2.91
2017-12-11T07:28:26.455Z,2.85
2017-12-11T07:29:26.711Z,2.9
2017-12-11T07:30:26.701Z,2.83
2017-12-11T07:31:26.680Z,3.05
2017-12-11T07:32:26.393Z,2.9
2017-12-11T07:33:26.374Z,3.02
2017-12-11T07:34:26.627Z,3.01
2017-12-11T07:35:26.633Z,2.91
2017-12-11T07:36:26.603Z,3.01
2017-12-11T07:37:26.579Z,3.11
2017-12-11T07:38:26.568Z,3.06
2017-12-11T07:39:26.821Z,3.06
2017-12-11T07:40:26.260Z,3.05
2017-12-11T07:41:26.526Z,3.06
2017-12-11T07:42:26.771Z,3.14
2017-12-11T07:43:26.485Z,3.09
2017-12-11T07:44:26.220Z,3.14
2017-12-11T07:45:26.449Z,3.19
2017-12-11T07:46:26.435Z,3.17
2017-12-11T07:47:26.149Z,3.21
2017-12-11T07:48:26.133Z,3.17
2017-12-11T07:49:26.117Z,3.24
2017-12-11T07:50:26.646Z,3.21
2017-12-11T07:51:26.085Z,3.19
2017-12-11T07:52:26.341Z,3.2
2017-12-11T07:53:26.059Z,3.27
2017-12-11T07:54:26.037Z,3.2
2017-12-11T07:55:26.564Z,3.19
2017-12-11T07:56:26.279Z,3.19
2017-12-11T07:57:26.531Z,3.2
2017-12-11T07:58:26.260Z,3.29
2017-12-11T07:59:26.244Z,3.24
2017-12-11T08:00:25.942Z,3.24
2017-12-11T08:01:26.224Z,3.2
2017-12-11T08:02:26.450Z,3.21
2017-12-11T08:03:26.171Z,3.23
2017-12-11T08:04:25.875Z,3.2
2017-12-11T08:05:25.859Z,3.29
2017-12-11T08:06:25.843Z,3.24
2017-12-11T08:07:25.829Z,3.19
2017-12-11T08:08:25.813Z,3.27
2017-12-11T08:09:26.070Z,3.26
2017-12-11T08:10:25.780Z,3.29
2017-12-11T08:11:25.764Z,3.23
2017-12-11T08:12:25.746Z,3.17
2017-12-11T08:13:25.732Z,3.21
2017-12-11T08:14:25.720Z,3.21
2017-12-11T08:15:25.746Z,3.23
2017-12-11T08:16:26.235Z,3.32
2017-12-11T08:17:26.213Z,3.21
2017-12-11T08:18:26.199Z,3.21
2017-12-11T08:19:25.908Z,3.3
2017-12-11T08:20:25.896Z,3.39
2017-12-11T08:21:25.879Z,3.3
2017-12-11T08:22:25.861Z,3.29
2017-12-11T08:23:25.573Z,3.35
2017-12-11T08:24:25.557Z,3.35
2017-12-11T08:25:25.818Z,3.34
2017-12-11T08:26:25.816Z,3.39
2017-12-11T08:27:25.781Z,3.34
2017-12-11T08:28:25.495Z,3.42
2017-12-11T08:29:25.478Z,3.42
2017-12-11T08:30:25.738Z,3.48
2017-12-11T08:31:25.447Z,3.43
2017-12-11T08:32:25.713Z,3.45
2017-12-11T08:33:25.423Z,3.51
2017-12-11T08:34:25.395Z,3.4
2017-12-11T08:35:25.677Z,3.51
2017-12-11T08:36:25.635Z,3.4
2017-12-11T08:37:25.622Z,3.43
2017-12-11T08:38:25.350Z,3.53
2017-12-11T08:39:25.588Z,3.54
2017-12-11T08:40:25.573Z,3.51
2017-12-11T08:41:25.288Z,3.43
2017-12-11T08:42:25.551Z,3.53
2017-12-11T08:43:25.257Z,3.54
2017-12-11T08:44:25.784Z,3.49
2017-12-11T08:45:25.497Z,3.49
2017-12-11T08:46:25.214Z,3.57
2017-12-11T08:47:25.466Z,3.57
2017-12-11T08:48:25.452Z,3.46
2017-12-11T08:49:25.179Z,3.6
2017-12-11T08:50:25.418Z,3.56
2017-12-11T08:51:25.402Z,3.67
2017-12-11T08:52:25.388Z,3.64
2017-12-11T08:53:25.371Z,3.56
2017-12-11T08:54:25.100Z,3.66
2017-12-11T08:55:25.064Z,3.67
2017-12-11T08:56:25.051Z,3.71
2017-12-11T08:57:25.079Z,3.69
2017-12-11T08:58:25.294Z,3.72
2017-12-11T08:59:25.561Z,3.66
2017-12-11T09:00:25.261Z,3.66
2017-12-11T09:01:24.971Z,3.67
2017-12-11T09:02:24.958Z,3.74
2017-12-11T09:03:25.232Z,3.66
2017-12-11T09:04:25.196Z,3.76
2017-12-11T09:05:25.181Z,3.76
2017-12-11T09:06:25.172Z,3.76
2017-12-11T09:07:25.150Z,3.82
2017-12-11T09:08:25.143Z,3.79
2017-12-11T09:09:25.120Z,3.82
2017-12-11T09:10:25.106Z,3.84
2017-12-11T09:11:24.815Z,3.89
2017-12-11T09:12:25.073Z,3.85
2017-12-11T09:13:25.095Z,3.89
2017-12-11T09:14:24.771Z,3.86
2017-12-11T09:15:25.088Z,3.9
2017-12-11T09:16:24.743Z,3.85
2017-12-11T09:17:25.000Z,3.9
2017-12-11T09:18:25.254Z,3.94
2017-12-11T09:19:24.966Z,3.93
2017-12-11T09:20:24.948Z,3.94
2017-12-11T09:21:24.661Z,3.94
2017-12-11T09:22:25.190Z,3.96
2017-12-11T09:23:25.173Z,3.99
2017-12-11T09:24:24.910Z,4
2017-12-11T09:25:25.157Z,3.93
2017-12-11T09:26:24.588Z,3.93
2017-12-11T09:27:25.129Z,3.93
2017-12-11T09:28:24.556Z,4.07
2017-12-11T09:29:24.540Z,4.12
2017-12-11T09:30:24.523Z,4.1
2017-12-11T09:31:24.777Z,4.24
2017-12-11T09:32:24.497Z,4.17
2017-12-11T09:33:25.020Z,4.11
2017-12-11T09:34:24.735Z,4.2
2017-12-11T09:35:24.730Z,4.29
2017-12-11T09:36:24.704Z,4.2
2017-12-11T09:37:24.690Z,4.24
2017-12-11T09:38:24.688Z,4.28
2017-12-11T09:39:24.680Z,4.26
2017-12-11T09:40:24.934Z,4.3
2017-12-11T09:41:24.354Z,4.28
2017-12-11T09:42:24.342Z,4.4
2017-12-11T09:43:24.599Z,4.38
2017-12-11T09:44:24.590Z,4.5
2017-12-11T09:45:24.840Z,4.46
2017-12-11T09:46:24.553Z,4.56
2017-12-11T09:47:24.535Z,4.6
2017-12-11T09:48:24.798Z,4.51
2017-12-11T09:49:24.779Z,4.39
2017-12-11T09:50:24.761Z,4.44
2017-12-11T09:51:24.230Z,4.5
2017-12-11T09:52:24.189Z,4.46
2017-12-11T09:53:24.174Z,4.5
2017-12-11T09:54:24.706Z,4.53
2017-12-11T09:55:24.695Z,4.51
2017-12-11T09:56:24.414Z,4.46
2017-12-11T09:57:24.660Z,4.51
2017-12-11T09:58:24.101Z,4.5
2017-12-11T09:59:24.373Z,4.58
2017-12-11T10:00:24.344Z,4.6
2017-12-11T10:01:24.615Z,4.54
2017-12-11T10:02:24.039Z,4.44
2017-12-11T10:03:24.027Z,4.61
2017-12-11T10:04:24.012Z,4.54
2017-12-11T10:05:23.996Z,4.54
2017-12-11T10:06:24.274Z,4.53
2017-12-11T10:07:24.238Z,4.56
2017-12-11T10:08:23.951Z,4.51
2017-12-11T10:09:23.934Z,4.47
2017-12-11T10:10:24.188Z,4.51
2017-12-11T10:11:24.626Z,4.47
2017-12-11T10:12:24.168Z,4.54
2017-12-11T10:13:23.877Z,4.54
2017-12-11T10:14:24.137Z,4.53
2017-12-11T10:15:24.117Z,4.54
2017-12-11T10:16:24.113Z,4.56
2017-12-11T10:17:23.816Z,4.6
2017-12-11T10:18:23.804Z,4.53
2017-12-11T10:19:23.786Z,4.51
2017-12-11T10:20:24.319Z,4.56
2017-12-11T10:21:24.030Z,4.54
2017-12-11T10:22:24.287Z,4.44
2017-12-11T10:23:23.997Z,4.53
2017-12-11T10:24:24.003Z,4.5
2017-12-11T10:25:23.980Z,4.48
2017-12-11T10:26:23.950Z,4.44
2017-12-11T10:27:23.666Z,4.42
2017-12-11T10:28:23.923Z,4.56
2017-12-11T10:29:23.930Z,4.47
2017-12-11T10:30:23.625Z,4.51
2017-12-11T10:31:23.880Z,4.48
2017-12-11T10:32:23.866Z,4.48
2017-12-11T10:33:23.853Z,4.46
2017-12-11T10:34:23.564Z,4.48
2017-12-11T10:35:23.550Z,4.57
2017-12-11T10:36:23.806Z,4.47
2017-12-11T10:37:23.790Z,4.47
2017-12-11T10:38:23.509Z,4.46
2017-12-11T10:39:23.489Z,4.42
2017-12-11T10:40:23.475Z,4.47
2017-12-11T10:41:23.739Z,4.42
2017-12-11T10:42:23.715Z,4.42
2017-12-11T10:43:23.436Z,4.48
2017-12-11T10:44:23.682Z,4.47
2017-12-11T10:45:23.688Z,4.5
2017-12-11T10:46:23.931Z,4.54
2017-12-11T10:47:23.640Z,4.5
2017-12-11T10:48:23.624Z,4.48
2017-12-11T10:49:23.337Z,4.56
2017-12-11T10:50:23.871Z,4.46
2017-12-11T10:51:23.578Z,4.51
2017-12-11T10:52:23.294Z,4.53
2017-12-11T10:53:23.278Z,4.53
2017-12-11T10:54:23.537Z,4.53
2017-12-11T10:55:23.541Z,4.5
2017-12-11T10:56:23.506Z,4.53
2017-12-11T10:57:23.491Z,4.51
2017-12-11T10:58:23.489Z,4.47
2017-12-11T10:59:23.734Z,4.57
2017-12-11T11:00:23.447Z,4.54
2017-12-11T11:01:23.433Z,4.57
2017-12-11T11:02:23.427Z,4.56
2017-12-11T11:03:23.419Z,4.66
2017-12-11T11:04:23.386Z,4.65
2017-12-11T11:05:23.374Z,4.69
2017-12-11T11:06:23.379Z,4.79
2017-12-11T11:07:23.615Z,4.75
2017-12-11T11:08:23.060Z,4.85
2017-12-11T11:09:23.042Z,4.92
2017-12-11T11:10:23.031Z,4.94
2017-12-11T11:11:23.016Z,4.92
2017-12-11T11:12:23.558Z,4.94
2017-12-11T11:13:23.252Z,5
2017-12-11T11:14:23.247Z,5.06
2017-12-11T11:15:23.228Z,5.05
2017-12-11T11:16:23.214Z,5.02
2017-12-11T11:17:23.222Z,5.08
2017-12-11T11:18:22.914Z,5.08
2017-12-11T11:19:23.213Z,5.05
2017-12-11T11:20:22.883Z,5.02
2017-12-11T11:21:23.162Z,5.06
2017-12-11T11:22:23.126Z,5.1
2017-12-11T11:23:23.113Z,5.05
2017-12-11T11:24:23.104Z,5.06
2017-12-11T11:25:23.083Z,5.09
2017-12-11T11:26:22.796Z,5.03
2017-12-11T11:27:23.326Z,5.1
2017-12-11T11:28:22.765Z,5.09
2017-12-11T11:29:23.029Z,5.12
2017-12-11T11:30:22.736Z,5.15
2017-12-11T11:31:22.738Z,5.15
2017-12-11T11:32:22.704Z,5.1
2017-12-11T11:33:22.694Z,5.12
2017-12-11T11:34:23.224Z,5.18
2017-12-11T11:35:22.664Z,5.18
2017-12-11T11:36:22.945Z,5.16
2017-12-11T11:37:22.948Z,5.23
2017-12-11T11:38:22.896Z,5.15
2017-12-11T11:39:22.610Z,5.16
2017-12-11T11:40:22.597Z,5.15
2017-12-11T11:41:22.853Z,5.18
2017-12-11T11:42:22.833Z,5.18
2017-12-11T11:43:22.551Z,5.21
2017-12-11T11:44:22.809Z,5.21
2017-12-11T11:45:22.849Z,5.26
2017-12-11T11:46:23.049Z,5.27
2017-12-11T11:47:23.035Z,5.26
2017-12-11T11:48:22.476Z,5.18
2017-12-11T11:49:22.752Z,5.28
2017-12-11T11:50:22.718Z,5.3
2017-12-11T11:51:22.708Z,5.31
2017-12-11T11:52:22.420Z,5.33
2017-12-11T11:53:22.677Z,5.31
2017-12-11T11:54:22.931Z,5.37
2017-12-11T11:55:22.646Z,5.45
2017-12-11T11:56:22.636Z,5.33
2017-12-11T11:57:22.347Z,5.46
2017-12-11T11:58:22.332Z,5.48
2017-12-11T11:59:22.335Z,5.48
2017-12-11T12:00:22.577Z,5.37
2017-12-11T12:01:22.294Z,5.41
2017-12-11T12:02:22.547Z,5.49
2017-12-11T12:03:22.551Z,5.41
2017-12-11T12:04:22.525Z,5.48
2017-12-11T12:05:22.257Z,5.51
2017-12-11T12:06:22.776Z,5.48
2017-12-11T12:07:22.207Z,5.49
2017-12-11T12:08:22.471Z,5.48
2017-12-11T12:09:22.451Z,5.6
2017-12-11T12:10:22.435Z,5.57
2017-12-11T12:11:22.428Z,5.67
2017-12-11T12:12:22.682Z,5.64
2017-12-11T12:13:22.408Z,5.66
2017-12-11T12:14:22.381Z,5.59
2017-12-11T12:15:22.369Z,5.62
2017-12-11T12:16:22.086Z,5.57
2017-12-11T12:17:22.067Z,5.55
2017-12-11T12:18:22.328Z,5.6
2017-12-11T12:19:22.046Z,5.66
2017-12-11T12:20:22.024Z,5.6
2017-12-11T12:21:22.278Z,5.69
2017-12-11T12:22:22.002Z,5.7
2017-12-11T12:23:22.001Z,5.78
2017-12-11T12:24:22.238Z,5.84
2017-12-11T12:25:22.224Z,5.73
2017-12-11T12:26:21.965Z,5.78
2017-12-11T12:27:22.197Z,5.84
2017-12-11T12:28:21.930Z,5.96
2017-12-11T12:29:22.172Z,5.91
2017-12-11T12:30:22.172Z,5.95
2017-12-11T12:31:22.143Z,5.96
2017-12-11T12:32:22.412Z,5.98
2017-12-11T12:33:22.121Z,6
2017-12-11T12:34:22.104Z,5.99
2017-12-11T12:35:21.817Z,6.07
2017-12-11T12:36:22.083Z,6.07
2017-12-11T12:37:22.059Z,6.05
2017-12-11T12:38:22.048Z,6.05
2017-12-11T12:39:21.760Z,6.06
2017-12-11T12:40:22.293Z,5.96
2017-12-11T12:41:22.296Z,6
2017-12-11T12:42:22.276Z,5.96
2017-12-11T12:43:21.985Z,5.95
2017-12-11T12:44:21.695Z,5.99
2017-12-11T12:45:22.227Z,6.02
2017-12-11T12:46:21.668Z,5.99
2017-12-11T12:47:21.930Z,5.89
2017-12-11T12:48:21.641Z,5.88
2017-12-11T12:49:21.915Z,5.87
2017-12-11T12:50:21.883Z,5.98
2017-12-11T12:51:21.920Z,5.91
2017-12-11T12:52:21.855Z,5.92
2017-12-11T12:53:21.571Z,5.89
2017-12-11T12:54:21.846Z,5.89
2017-12-11T12:55:22.086Z,5.89
2017-12-11T12:56:21.819Z,5.88
2017-12-11T12:57:21.790Z,5.85
2017-12-11T12:58:21.775Z,5.99
2017-12-11T12:59:21.766Z,5.92
2017-12-11T13:00:21.748Z,5.87
2017-12-11T13:01:21.461Z,5.88
2017-12-11T13:02:21.450Z,5.92
2017-12-11T13:03:21.450Z,5.88
2017-12-11T13:04:21.704Z,5.99
2017-12-11T13:05:21.411Z,5.87
2017-12-11T13:06:21.399Z,5.92
2017-12-11T13:07:21.378Z,5.95
2017-12-11T13:08:21.368Z,6.05
2017-12-11T13:09:21.893Z,6.03
2017-12-11T13:10:21.338Z,5.91
2017-12-11T13:11:21.609Z,5.99
2017-12-11T13:12:21.332Z,5.96
2017-12-11T13:13:21.568Z,5.96
2017-12-11T13:14:21.557Z,6
2017-12-11T13:15:21.564Z,5.96
2017-12-11T13:16:21.263Z,5.98
2017-12-11T13:17:21.517Z,6
2017-12-11T13:18:21.517Z,6.02
2017-12-11T13:19:21.501Z,5.99
2017-12-11T13:20:21.754Z,6.07
2017-12-11T13:21:21.743Z,5.95